createdAt,value
2023-09-06T00:00:29.064Z,98044.00
2023-09-06T00:02:58.830Z,98040.00
2023-09-06T00:05:31.146Z,98032.00
2023-09-06T00:07:59.593Z,98035.00
2023-09-06T00:10:27.874Z,98033.00
2023-09-06T00:12:56.262Z,98031.00
2023-09-06T00:15:25.118Z,98027.00
2023-09-06T00:17:53.959Z,98027.00
2023-09-06T00:20:23.013Z,98023.00
2023-09-06T00:22:59.087Z,98036.00
2023-09-06T00:25:28.839Z,98018.00
2023-09-06T00:28:00.255Z,98028.00
2023-09-06T00:30:28.799Z,98015.00
2023-09-06T00:32:57.156Z,98025.00
2023-09-06T00:35:25.899Z,98014.00
2023-09-06T00:37:55.324Z,98010.00
2023-09-06T00:40:25.530Z,98013.00
2023-09-06T00:43:00.801Z,98012.00
2023-09-06T00:45:32.915Z,98011.00
2023-09-06T00:48:02.654Z,98023.00
2023-09-06T00:50:31.958Z,98026.00
2023-09-06T00:53:01.148Z,98023.00
2023-09-06T00:55:30.772Z,98009.00
2023-09-06T00:57:59.393Z,98006.00
2023-09-06T01:00:27.802Z,98009.00
2023-09-06T01:02:56.405Z,98022.00
2023-09-06T01:05:31.493Z,98026.00
2023-09-06T01:08:05.892Z,98032.00
2023-09-06T01:10:37.753Z,98014.00
2023-09-06T01:13:06.494Z,98017.00
2023-09-06T01:15:35.077Z,98024.00
2023-09-06T01:18:07.836Z,98017.00
2023-09-06T01:20:44.694Z,98015.00
2023-09-06T01:23:34.686Z,98015.00
2023-09-06T01:26:03.741Z,98026.00
2023-09-06T01:28:33.353Z,98011.00
2023-09-06T01:31:02.220Z,98011.00
2023-09-06T01:33:31.633Z,98008.00
2023-09-06T01:36:00.468Z,98007.00
2023-09-06T01:38:34.035Z,98012.00
2023-09-06T01:41:05.157Z,98001.00
2023-09-06T01:43:33.490Z,98014.00
2023-09-06T01:46:01.904Z,98005.00
2023-09-06T01:48:30.306Z,98006.00
2023-09-06T01:50:58.668Z,98005.00
2023-09-06T01:53:26.906Z,97996.00
2023-09-06T01:55:56.441Z,97993.00
2023-09-06T01:58:25.157Z,97996.00
2023-09-06T02:00:54.378Z,97992.00
2023-09-06T02:03:22.898Z,97988.00
2023-09-06T02:05:52.311Z,97976.00
2023-09-06T02:08:21.071Z,97982.00
2023-09-06T02:10:50.386Z,97978.00
2023-09-06T02:13:19.981Z,97975.00
2023-09-06T02:15:48.309Z,97969.00
2023-09-06T02:18:18.274Z,97970.00
2023-09-06T02:20:49.846Z,97973.00
2023-09-06T02:23:18.218Z,97972.00
2023-09-06T02:25:47.907Z,97976.00
2023-09-06T02:28:18.594Z,97964.00
2023-09-06T02:30:48.952Z,97973.00
2023-09-06T02:33:17.214Z,97984.00
2023-09-06T02:35:46.498Z,97987.00
2023-09-06T02:38:16.976Z,97971.00
2023-09-06T02:40:45.189Z,97982.00
2023-09-06T02:43:14.857Z,97983.00
2023-09-06T02:45:50.913Z,97976.00
2023-09-06T02:48:22.920Z,97974.00
2023-09-06T02:50:52.966Z,97984.00
2023-09-06T02:53:22.244Z,97985.00
2023-09-06T02:55:53.079Z,97987.00
2023-09-06T02:58:25.984Z,97991.00
2023-09-06T03:00:59.676Z,97985.00
2023-09-06T03:03:30.415Z,97987.00
2023-09-06T03:06:00.338Z,97993.00
2023-09-06T03:08:31.535Z,97982.00
2023-09-06T03:11:00.180Z,97986.00
2023-09-06T03:13:31.652Z,97991.00
2023-09-06T03:16:00.912Z,98004.00
2023-09-06T03:18:31.896Z,97989.00
2023-09-06T03:21:05.897Z,98006.00
2023-09-06T03:23:34.799Z,97994.00
2023-09-06T03:26:07.044Z,98000.00
2023-09-06T03:28:42.127Z,98007.00
2023-09-06T03:31:14.382Z,98003.00
2023-09-06T03:33:44.088Z,98003.00
2023-09-06T03:36:13.727Z,97994.00
2023-09-06T03:38:42.481Z,97997.00
2023-09-06T03:41:10.774Z,97997.00
2023-09-06T03:43:39.583Z,97998.00
2023-09-06T03:46:11.107Z,97987.00
2023-09-06T03:48:39.890Z,97985.00
2023-09-06T03:51:10.029Z,97988.00
2023-09-06T03:53:39.318Z,97991.00
2023-09-06T03:56:11.862Z,97994.00
2023-09-06T03:58:44.306Z,98004.00
2023-09-06T04:01:16.676Z,97997.00
2023-09-06T04:03:47.673Z,98001.00
2023-09-06T04:06:18.057Z,98001.00
2023-09-06T04:08:47.705Z,98002.00
2023-09-06T04:11:17.904Z,97998.00
2023-09-06T04:13:46.140Z,98009.00
2023-09-06T04:16:17.328Z,97998.00
2023-09-06T04:18:46.231Z,97995.00
2023-09-06T04:21:15.260Z,98017.00
2023-09-06T04:23:46.602Z,98015.00
2023-09-06T04:26:18.735Z,98004.00
2023-09-06T04:28:47.234Z,98008.00
2023-09-06T04:31:19.034Z,98005.00
2023-09-06T04:33:49.237Z,98002.00
2023-09-06T04:36:22.834Z,98003.00
2023-09-06T04:38:57.770Z,98016.00
2023-09-06T04:41:27.097Z,98006.00
2023-09-06T04:44:00.176Z,98011.00
2023-09-06T04:46:29.786Z,98016.00
2023-09-06T04:48:58.117Z,98024.00
2023-09-06T04:51:26.712Z,98021.00
2023-09-06T04:53:56.938Z,98010.00
2023-09-06T04:56:32.242Z,98010.00
2023-09-06T04:59:01.511Z,98008.00
2023-09-06T05:01:30.045Z,98011.00
2023-09-06T05:03:59.022Z,98016.00
2023-09-06T05:06:28.936Z,98021.00
2023-09-06T05:08:59.049Z,98034.00
2023-09-06T05:11:28.922Z,98022.00
2023-09-06T05:13:57.352Z,98032.00
2023-09-06T05:16:27.786Z,98042.00
2023-09-06T05:18:56.882Z,98039.00
2023-09-06T05:21:29.193Z,98035.00
2023-09-06T05:23:58.837Z,98040.00
2023-09-06T05:26:27.188Z,98029.00
2023-09-06T05:28:55.547Z,98041.00
2023-09-06T05:31:23.910Z,98047.00
2023-09-06T05:33:54.127Z,98031.00
2023-09-06T05:36:25.076Z,98034.00
2023-09-06T05:38:53.232Z,98034.00
2023-09-06T05:41:25.900Z,98043.00
2023-09-06T05:43:54.172Z,98029.00
2023-09-06T05:46:33.161Z,98032.00
2023-09-06T05:49:07.044Z,98037.00
2023-09-06T05:51:38.919Z,98036.00
2023-09-06T05:54:08.001Z,98046.00
2023-09-06T05:56:40.583Z,98047.00
2023-09-06T05:59:09.274Z,98050.00
2023-09-06T06:01:38.212Z,98043.00
2023-09-06T06:04:07.042Z,98044.00
2023-09-06T06:06:35.992Z,98047.00
2023-09-06T06:09:05.159Z,98044.00
2023-09-06T06:11:33.403Z,98040.00
2023-09-06T06:14:10.947Z,98043.00
2023-09-06T06:16:45.597Z,98051.00
2023-09-06T06:19:15.226Z,98042.00
2023-09-06T06:21:44.428Z,98051.00
2023-09-06T06:24:14.599Z,98053.00
2023-09-06T06:26:42.893Z,98047.00
2023-09-06T06:29:13.209Z,98055.00
2023-09-06T06:31:41.655Z,98065.00
2023-09-06T06:34:10.860Z,98070.00
2023-09-06T06:36:39.158Z,98062.00
2023-09-06T06:39:07.532Z,98063.00
2023-09-06T06:41:35.889Z,98050.00
2023-09-06T06:44:04.306Z,98063.00
2023-09-06T06:46:39.008Z,98064.00
2023-09-06T06:49:08.578Z,98068.00
2023-09-06T06:51:39.764Z,98061.00
2023-09-06T06:54:11.718Z,98062.00
2023-09-06T06:56:40.483Z,98058.00
2023-09-06T06:59:10.168Z,98066.00
2023-09-06T07:01:39.910Z,98060.00
2023-09-06T07:04:08.741Z,98062.00
2023-09-06T07:06:37.561Z,98073.00
2023-09-06T07:09:06.332Z,98065.00
2023-09-06T07:11:34.801Z,98073.00
2023-09-06T07:14:03.534Z,98069.00
2023-09-06T07:16:32.481Z,98071.00
2023-09-06T07:19:02.447Z,98069.00
2023-09-06T07:21:32.245Z,98071.00
2023-09-06T07:24:00.447Z,98073.00
2023-09-06T07:26:28.874Z,98067.00
2023-09-06T07:28:57.087Z,98066.00
2023-09-06T07:31:25.451Z,98080.00
2023-09-06T07:33:53.918Z,98074.00
2023-09-06T07:36:23.578Z,98061.00
2023-09-06T07:38:56.034Z,98073.00
2023-09-06T07:41:27.011Z,98066.00
2023-09-06T07:43:54.479Z,98060.00
2023-09-06T07:46:25.355Z,98075.00
2023-09-06T07:48:54.024Z,98070.00
2023-09-06T07:51:24.820Z,98071.00
2023-09-06T07:53:53.046Z,98071.00
2023-09-06T07:56:21.552Z,98074.00
2023-09-06T07:58:49.872Z,98079.00
2023-09-06T08:01:19.882Z,98078.00
2023-09-06T08:03:49.221Z,98085.00
2023-09-06T08:06:18.464Z,98084.00
2023-09-06T08:08:48.229Z,98077.00
2023-09-06T08:11:19.770Z,98079.00
2023-09-06T08:13:48.184Z,98081.00
2023-09-06T08:16:17.049Z,98072.00
2023-09-06T08:18:46.168Z,98077.00
2023-09-06T08:21:14.884Z,98076.00
2023-09-06T08:23:43.217Z,98071.00
2023-09-06T08:26:13.584Z,98071.00
2023-09-06T08:28:42.583Z,98077.00
2023-09-06T08:31:11.248Z,98080.00
2023-09-06T08:33:39.792Z,98081.00
2023-09-06T08:36:08.650Z,98081.00
2023-09-06T08:38:37.086Z,98073.00
2023-09-06T08:41:08.710Z,98080.00
2023-09-06T08:43:43.575Z,98074.00
2023-09-06T08:46:22.677Z,98077.00
2023-09-06T08:48:54.796Z,98076.00
2023-09-06T08:51:24.231Z,98075.00
2023-09-06T08:53:54.454Z,98078.00
2023-09-06T08:56:23.441Z,98077.00
2023-09-06T08:58:53.129Z,98072.00
2023-09-06T09:01:23.018Z,98073.00
2023-09-06T09:03:52.233Z,98074.00
2023-09-06T09:06:21.670Z,98082.00
2023-09-06T09:08:50.250Z,98084.00
2023-09-06T09:11:20.847Z,98091.00
2023-09-06T09:13:49.669Z,98076.00
2023-09-06T09:16:19.865Z,98077.00
2023-09-06T09:18:49.148Z,98076.00
2023-09-06T09:21:17.608Z,98071.00
2023-09-06T09:23:48.543Z,98077.00
2023-09-06T09:26:21.203Z,98077.00
2023-09-06T09:28:50.116Z,98084.00
2023-09-06T09:31:20.446Z,98088.00
2023-09-06T09:33:53.112Z,98091.00
2023-09-06T09:36:21.364Z,98075.00
2023-09-06T09:38:50.876Z,98085.00
2023-09-06T09:41:19.603Z,98073.00
2023-09-06T09:43:47.890Z,98067.00
2023-09-06T09:46:29.623Z,98078.00
2023-09-06T09:49:02.490Z,98076.00
2023-09-06T09:51:35.168Z,98079.00
2023-09-06T09:54:05.895Z,98071.00
2023-09-06T09:56:36.166Z,98059.00
2023-09-06T09:59:06.080Z,98066.00
2023-09-06T10:01:35.964Z,98071.00
2023-09-06T10:04:07.648Z,98064.00
2023-09-06T10:06:36.959Z,98062.00
2023-09-06T10:09:13.611Z,98059.00
2023-09-06T10:11:44.502Z,98057.00
2023-09-06T10:14:15.989Z,98055.00
2023-09-06T10:16:46.773Z,98054.00
2023-09-06T10:19:15.111Z,98067.00
2023-09-06T10:21:45.468Z,98063.00
2023-09-06T10:24:21.432Z,98059.00
2023-09-06T10:26:51.157Z,98062.00
2023-09-06T10:29:26.896Z,98061.00
2023-09-06T10:32:04.562Z,98056.00
2023-09-06T10:34:35.232Z,98052.00
2023-09-06T10:37:07.353Z,98057.00
2023-09-06T10:39:35.868Z,98054.00
2023-09-06T10:42:19.736Z,98044.00
2023-09-06T10:45:13.562Z,98053.00
2023-09-06T10:47:43.700Z,98039.00
2023-09-06T10:50:17.216Z,98044.00
2023-09-06T10:52:49.414Z,98047.00
2023-09-06T10:55:21.916Z,98044.00
2023-09-06T10:58:09.269Z,98033.00
2023-09-06T11:00:37.801Z,98033.00
2023-09-06T11:03:20.526Z,98030.00
2023-09-06T11:05:55.237Z,98029.00
2023-09-06T11:08:32.198Z,98033.00
2023-09-06T11:11:07.365Z,98033.00
2023-09-06T11:13:37.484Z,98040.00
2023-09-06T11:16:07.570Z,98035.00
2023-09-06T11:18:48.193Z,98038.00
2023-09-06T11:21:20.786Z,98026.00
2023-09-06T11:23:51.655Z,98024.00
2023-09-06T11:26:20.964Z,98032.00
2023-09-06T11:28:49.560Z,98034.00
2023-09-06T11:31:30.652Z,98028.00
2023-09-06T11:34:07.016Z,98026.00
2023-09-06T11:36:37.863Z,98027.00
2023-09-06T11:39:16.845Z,98027.00
2023-09-06T11:41:45.950Z,98023.00
2023-09-06T11:44:16.078Z,98021.00
2023-09-06T11:46:45.617Z,98021.00
2023-09-06T11:49:16.178Z,98013.00
2023-09-06T11:51:47.370Z,98016.00
2023-09-06T11:54:16.996Z,98016.00
2023-09-06T11:56:49.333Z,98021.00
2023-09-06T11:59:21.396Z,98012.00
2023-09-06T12:01:53.860Z,98005.00
2023-09-06T12:04:24.777Z,97999.00
2023-09-06T12:06:53.755Z,98006.00
2023-09-06T12:09:22.716Z,98003.00
2023-09-06T12:11:51.349Z,98001.00
2023-09-06T12:14:19.900Z,97995.00
2023-09-06T12:16:48.260Z,97994.00
2023-09-06T12:19:18.762Z,97992.00
2023-09-06T12:21:48.452Z,98001.00
2023-09-06T12:24:16.789Z,97993.00
2023-09-06T12:26:45.284Z,97988.00
2023-09-06T12:29:14.837Z,97992.00
2023-09-06T12:31:43.193Z,97996.00
2023-09-06T12:34:11.560Z,97984.00
2023-09-06T12:36:39.753Z,97987.00
2023-09-06T12:39:09.340Z,97986.00
2023-09-06T12:41:37.671Z,97986.00
2023-09-06T12:44:07.591Z,97980.00
2023-09-06T12:46:35.961Z,97988.00
2023-09-06T12:49:05.503Z,97984.00
2023-09-06T12:51:33.816Z,97971.00
2023-09-06T12:54:02.112Z,97977.00
2023-09-06T12:56:31.796Z,97974.00
2023-09-06T12:59:00.019Z,97973.00
2023-09-06T13:01:28.361Z,97980.00
2023-09-06T13:03:56.692Z,97976.00
2023-09-06T13:06:24.949Z,97966.00
2023-09-06T13:08:53.101Z,97962.00
2023-09-06T13:11:21.417Z,97967.00
2023-09-06T13:13:51.024Z,97974.00
2023-09-06T13:16:19.389Z,97971.00
2023-09-06T13:18:47.753Z,97968.00
2023-09-06T13:21:16.200Z,97978.00
2023-09-06T13:23:44.576Z,97968.00
2023-09-06T13:26:12.865Z,97979.00
2023-09-06T13:28:41.512Z,97964.00
2023-09-06T13:31:12.325Z,97964.00
2023-09-06T13:33:41.187Z,97958.00
2023-09-06T13:36:09.683Z,97961.00
2023-09-06T13:38:37.965Z,97957.00
2023-09-06T13:41:06.398Z,97953.00
2023-09-06T13:43:34.619Z,97959.00
2023-09-06T13:46:02.964Z,97949.00
2023-09-06T13:48:32.667Z,97947.00
2023-09-06T13:51:00.961Z,97948.00
2023-09-06T13:53:29.415Z,97935.00
2023-09-06T13:55:58.752Z,97937.00
2023-09-06T13:58:28.125Z,97939.00
2023-09-06T14:00:57.706Z,97937.00
2023-09-06T14:03:26.192Z,97938.00
2023-09-06T14:05:56.307Z,97938.00
2023-09-06T14:08:24.845Z,97938.00
2023-09-06T14:10:54.422Z,97932.00
2023-09-06T14:13:25.203Z,97937.00
2023-09-06T14:15:54.666Z,97936.00
2023-09-06T14:18:23.450Z,97940.00
2023-09-06T14:20:53.833Z,97935.00
2023-09-06T14:23:24.981Z,97933.00
2023-09-06T14:25:53.285Z,97934.00
2023-09-06T14:28:22.064Z,97930.00
2023-09-06T14:30:52.065Z,97927.00
2023-09-06T14:33:20.357Z,97925.00
2023-09-06T14:35:49.025Z,97920.00
2023-09-06T14:38:18.295Z,97926.00
2023-09-06T14:40:47.986Z,97920.00
2023-09-06T14:43:16.323Z,97919.00
2023-09-06T14:45:44.510Z,97921.00
2023-09-06T14:48:13.147Z,97921.00
2023-09-06T14:50:41.472Z,97918.00
2023-09-06T14:53:12.167Z,97920.00
2023-09-06T14:55:40.402Z,97916.00
2023-09-06T14:58:09.983Z,97916.00
2023-09-06T15:00:39.325Z,97908.00
2023-09-06T15:03:08.192Z,97912.00
2023-09-06T15:05:39.562Z,97920.00
2023-09-06T15:08:08.011Z,97920.00
2023-09-06T15:10:36.224Z,97913.00
2023-09-06T15:13:07.155Z,97913.00
2023-09-06T15:15:36.855Z,97914.00
2023-09-06T15:18:06.245Z,97915.00
2023-09-06T15:20:35.274Z,97918.00
2023-09-06T15:23:03.914Z,97916.00
2023-09-06T15:25:32.395Z,97928.00
2023-09-06T15:28:00.609Z,97918.00
2023-09-06T15:30:29.266Z,97918.00
2023-09-06T15:32:58.937Z,97919.00
2023-09-06T15:35:29.101Z,97918.00
2023-09-06T15:38:04.241Z,97914.00
2023-09-06T15:40:34.359Z,97915.00
2023-09-06T15:43:05.425Z,97913.00
2023-09-06T15:45:34.660Z,97916.00
2023-09-06T15:48:05.981Z,97917.00
2023-09-06T15:50:34.491Z,97914.00
2023-09-06T15:53:02.969Z,97915.00
2023-09-06T15:55:33.649Z,97920.00
2023-09-06T15:58:02.114Z,97915.00
2023-09-06T16:00:32.697Z,97909.00
2023-09-06T16:03:03.738Z,97911.00
2023-09-06T16:05:32.622Z,97904.00
2023-09-06T16:08:01.018Z,97906.00
2023-09-06T16:10:29.508Z,97909.00
2023-09-06T16:12:57.742Z,97911.00
2023-09-06T16:15:26.780Z,97901.00
2023-09-06T16:17:55.509Z,97908.00
2023-09-06T16:20:25.656Z,97906.00
2023-09-06T16:22:54.018Z,97905.00
2023-09-06T16:25:22.400Z,97902.00
2023-09-06T16:27:50.649Z,97894.00
2023-09-06T16:30:19.353Z,97901.00
2023-09-06T16:32:50.024Z,97897.00
2023-09-06T16:35:18.764Z,97898.00
2023-09-06T16:37:51.624Z,97887.00
2023-09-06T16:40:22.000Z,97894.00
2023-09-06T16:42:50.937Z,97890.00
2023-09-06T16:45:21.431Z,97887.00
2023-09-06T16:47:51.736Z,97893.00
2023-09-06T16:50:21.267Z,97891.00
2023-09-06T16:52:51.769Z,97892.00
2023-09-06T16:55:20.482Z,97884.00
2023-09-06T16:57:48.942Z,97895.00
2023-09-06T17:00:17.814Z,97903.00
2023-09-06T17:02:46.042Z,97889.00
2023-09-06T17:05:14.242Z,97886.00
2023-09-06T17:07:43.063Z,97891.00
2023-09-06T17:10:13.205Z,97887.00
2023-09-06T17:12:41.570Z,97890.00
2023-09-06T17:15:17.599Z,97896.00
2023-09-06T17:17:45.948Z,97893.00
2023-09-06T17:20:16.651Z,97908.00
2023-09-06T17:22:45.804Z,97897.00
2023-09-06T17:25:17.036Z,97892.00
2023-09-06T17:27:46.563Z,97901.00
2023-09-06T17:30:21.811Z,97902.00
2023-09-06T17:33:12.199Z,97902.00
2023-09-06T17:35:42.314Z,97905.00
2023-09-06T17:38:13.496Z,97906.00
2023-09-06T17:40:46.203Z,97895.00
2023-09-06T17:43:15.628Z,97908.00
2023-09-06T17:45:46.527Z,97907.00
2023-09-06T17:48:15.314Z,97912.00
2023-09-06T17:50:45.771Z,97910.00
2023-09-06T17:53:15.837Z,97916.00
2023-09-06T17:55:47.349Z,97905.00
2023-09-06T17:58:18.078Z,97912.00
2023-09-06T18:00:50.265Z,97912.00
2023-09-06T18:03:19.654Z,97917.00
2023-09-06T18:05:56.045Z,97915.00
2023-09-06T18:08:26.699Z,97927.00
2023-09-06T18:10:57.187Z,97918.00
2023-09-06T18:13:25.664Z,97926.00
2023-09-06T18:15:54.907Z,97921.00
2023-09-06T18:18:24.442Z,97927.00
2023-09-06T18:20:57.406Z,97923.00
2023-09-06T18:23:25.824Z,97922.00
2023-09-06T18:25:58.341Z,97926.00
2023-09-06T18:28:27.393Z,97926.00
2023-09-06T18:30:55.905Z,97926.00
2023-09-06T18:33:25.338Z,97923.00
2023-09-06T18:35:55.969Z,97928.00
2023-09-06T18:38:25.987Z,97934.00
2023-09-06T18:40:56.987Z,97935.00
2023-09-06T18:43:27.194Z,97936.00
2023-09-06T18:45:55.815Z,97933.00
2023-09-06T18:48:24.819Z,97934.00
2023-09-06T18:50:53.419Z,97937.00
2023-09-06T18:53:22.618Z,97939.00
2023-09-06T18:55:51.285Z,97941.00
2023-09-06T18:58:19.727Z,97949.00
2023-09-06T19:00:49.517Z,97929.00
2023-09-06T19:03:19.430Z,97942.00
2023-09-06T19:05:48.160Z,97945.00
2023-09-06T19:08:16.940Z,97947.00
2023-09-06T19:10:46.527Z,97954.00
2023-09-06T19:13:15.832Z,97971.00
2023-09-06T19:15:48.319Z,97959.00
2023-09-06T19:18:19.024Z,97969.00
2023-09-06T19:20:47.664Z,97950.00
2023-09-06T19:23:20.221Z,97946.00
2023-09-06T19:25:55.225Z,97952.00
2023-09-06T19:28:25.867Z,97955.00
2023-09-06T19:30:57.313Z,97956.00
2023-09-06T19:33:28.612Z,97950.00
2023-09-06T19:35:57.641Z,97954.00
2023-09-06T19:38:26.173Z,97952.00
2023-09-06T19:40:56.044Z,97957.00
2023-09-06T19:43:25.346Z,97956.00
2023-09-06T19:45:58.084Z,97948.00
2023-09-06T19:48:27.853Z,97950.00
2023-09-06T19:50:56.257Z,97960.00
2023-09-06T19:53:24.694Z,97957.00
2023-09-06T19:55:53.264Z,97952.00
2023-09-06T19:58:21.816Z,97953.00
2023-09-06T20:00:50.115Z,97945.00
2023-09-06T20:03:18.603Z,97948.00
2023-09-06T20:05:49.832Z,97949.00
2023-09-06T20:08:18.129Z,97955.00
2023-09-06T20:10:50.950Z,97950.00
2023-09-06T20:13:21.333Z,97950.00
2023-09-06T20:15:50.111Z,97939.00
2023-09-06T20:18:18.391Z,97941.00
2023-09-06T20:20:48.443Z,97942.00
2023-09-06T20:23:16.796Z,97932.00
2023-09-06T20:25:45.194Z,97945.00
2023-09-06T20:28:13.597Z,97951.00
2023-09-06T20:30:41.803Z,97939.00
2023-09-06T20:33:10.460Z,97944.00
2023-09-06T20:35:45.041Z,97940.00
2023-09-06T20:38:14.698Z,97935.00
2023-09-06T20:40:42.974Z,97938.00
2023-09-06T20:43:11.532Z,97950.00
2023-09-06T20:45:39.806Z,97944.00
2023-09-06T20:48:11.114Z,97953.00
2023-09-06T20:50:39.347Z,97943.00
2023-09-06T20:53:07.591Z,97944.00
2023-09-06T20:55:37.620Z,97941.00
2023-09-06T20:58:06.006Z,97945.00
2023-09-06T21:00:34.332Z,97944.00
2023-09-06T21:03:03.640Z,97943.00
2023-09-06T21:05:32.038Z,97947.00
2023-09-06T21:08:00.265Z,97942.00
2023-09-06T21:10:30.307Z,97948.00
2023-09-06T21:13:01.350Z,97936.00
2023-09-06T21:15:29.699Z,97952.00
2023-09-06T21:17:58.064Z,97936.00
2023-09-06T21:20:26.664Z,97943.00
2023-09-06T21:22:54.924Z,97928.00
2023-09-06T21:25:23.588Z,97952.00
2023-09-06T21:27:51.836Z,97934.00
2023-09-06T21:30:21.616Z,97945.00
2023-09-06T21:32:49.851Z,97949.00
2023-09-06T21:35:18.326Z,97960.00
2023-09-06T21:37:46.718Z,97952.00
2023-09-06T21:40:15.073Z,97950.00
2023-09-06T21:42:43.417Z,97947.00
2023-09-06T21:45:13.044Z,97972.00
2023-09-06T21:47:43.034Z,97959.00
2023-09-06T21:50:11.792Z,97953.00
2023-09-06T21:52:39.967Z,97958.00
2023-09-06T21:55:10.603Z,97963.00
2023-09-06T21:57:38.921Z,97953.00
2023-09-06T22:00:11.974Z,97961.00
2023-09-06T22:03:00.951Z,97961.00
2023-09-06T22:05:50.127Z,97957.00
2023-09-06T22:08:36.948Z,97959.00
2023-09-06T22:11:24.209Z,97959.00
2023-09-06T22:14:11.015Z,97972.00
2023-09-06T22:16:39.553Z,97956.00
2023-09-06T22:19:11.247Z,97963.00
2023-09-06T22:21:40.386Z,97973.00
2023-09-06T22:24:10.222Z,97966.00
2023-09-06T22:26:38.625Z,97964.00
2023-09-06T22:29:07.134Z,97968.00
2023-09-06T22:31:36.022Z,97971.00
2023-09-06T22:34:05.118Z,97962.00
2023-09-06T22:36:34.821Z,97969.00
2023-09-06T22:39:03.043Z,97967.00
2023-09-06T22:41:33.101Z,97960.00
2023-09-06T22:44:01.420Z,97975.00
2023-09-06T22:46:29.775Z,97988.00
2023-09-06T22:48:58.365Z,97983.00
2023-09-06T22:51:35.062Z,97993.00
2023-09-06T22:54:43.989Z,97981.00
2023-09-06T22:57:58.825Z,97991.00
2023-09-06T23:00:41.949Z,97978.00
2023-09-06T23:03:24.501Z,97984.00
2023-09-06T23:06:08.085Z,97992.00
2023-09-06T23:08:39.272Z,97993.00
2023-09-06T23:11:19.185Z,97986.00
2023-09-06T23:13:57.801Z,97983.00
2023-09-06T23:16:33.225Z,97981.00
2023-09-06T23:19:03.241Z,97989.00
2023-09-06T23:21:45.060Z,97979.00
2023-09-06T23:24:14.890Z,97989.00
2023-09-06T23:26:50.041Z,97987.00
2023-09-06T23:29:26.270Z,97986.00
2023-09-06T23:32:00.249Z,97983.00
2023-09-06T23:34:31.628Z,97974.00
2023-09-06T23:37:04.652Z,97981.00
2023-09-06T23:39:34.631Z,97977.00
2023-09-06T23:42:13.036Z,97974.00
2023-09-06T23:44:43.370Z,97980.00
2023-09-06T23:47:19.742Z,97973.00
2023-09-06T23:49:48.340Z,97986.00
2023-09-06T23:52:16.989Z,97971.00
2023-09-06T23:54:48.592Z,97982.00
2023-09-06T23:57:19.416Z,97965.00
2023-09-06T23:59:48.730Z,97972.00
